createdAt,value
2022-08-30T00:01:14.297Z,100502.63
2022-08-30T00:03:45.749Z,100503.98
2022-08-30T00:06:19.182Z,100502.94
2022-08-30T00:08:49.709Z,100505.10
2022-08-30T00:11:22.768Z,100505.92
2022-08-30T00:13:54.208Z,100504.93
2022-08-30T00:16:23.877Z,100505.02
2022-08-30T00:18:53.995Z,100507.48
2022-08-30T00:21:24.366Z,100504.65
2022-08-30T00:23:54.184Z,100503.05
2022-08-30T00:26:23.268Z,100501.73
2022-08-30T00:28:52.714Z,100498.96
2022-08-30T00:31:21.961Z,100497.36
2022-08-30T00:33:53.067Z,100493.33
2022-08-30T00:36:22.297Z,100495.20
2022-08-30T00:38:51.436Z,100490.75
2022-08-30T00:41:22.170Z,100495.30
2022-08-30T00:43:51.893Z,100494.86
2022-08-30T00:46:21.799Z,100495.30
2022-08-30T00:48:52.252Z,100492.52
2022-08-30T00:51:23.042Z,100492.10
2022-08-30T00:53:54.986Z,100488.92
2022-08-30T00:56:26.571Z,100488.65
2022-08-30T00:59:00.906Z,100487.65
2022-08-30T01:01:31.908Z,100488.92
2022-08-30T01:04:05.677Z,100489.94
2022-08-30T01:06:38.318Z,100489.68
2022-08-30T01:09:09.923Z,100490.86
2022-08-30T01:11:42.305Z,100486.33
2022-08-30T01:14:12.646Z,100489.75
2022-08-30T01:16:45.033Z,100491.39
2022-08-30T01:19:26.015Z,100492.20
2022-08-30T01:22:05.639Z,100495.48
2022-08-30T01:24:36.308Z,100491.19
2022-08-30T01:27:06.894Z,100493.84
2022-08-30T01:29:37.529Z,100494.71
2022-08-30T01:32:20.810Z,100491.61
2022-08-30T01:35:04.202Z,100488.02
2022-08-30T01:37:43.599Z,100485.61
2022-08-30T01:40:18.544Z,100487.91
2022-08-30T01:42:49.657Z,100491.19
2022-08-30T01:45:20.659Z,100491.23
2022-08-30T01:47:50.641Z,100488.67
2022-08-30T01:50:20.067Z,100484.03
2022-08-30T01:52:49.678Z,100485.82
2022-08-30T01:55:19.708Z,100481.73
2022-08-30T01:57:51.617Z,100485.29
2022-08-30T02:00:25.991Z,100484.45
2022-08-30T02:03:09.366Z,100482.52
2022-08-30T02:05:39.836Z,100480.52
2022-08-30T02:08:11.990Z,100485.31
2022-08-30T02:11:03.383Z,100484.94
2022-08-30T02:13:33.277Z,100506.05
2022-08-30T02:16:05.869Z,100524.41
2022-08-30T02:18:36.161Z,100520.76
2022-08-30T02:21:05.861Z,100528.16
2022-08-30T02:23:35.925Z,100521.54
2022-08-30T02:26:20.844Z,100528.33
2022-08-30T02:28:54.975Z,100525.03
2022-08-30T02:31:24.918Z,100523.81
2022-08-30T02:33:56.262Z,100532.42
2022-08-30T02:36:25.812Z,100530.58
2022-08-30T02:38:54.983Z,100534.75
2022-08-30T02:41:24.587Z,100535.54
2022-08-30T02:43:57.934Z,100535.27
2022-08-30T02:46:33.459Z,100537.05
2022-08-30T02:49:29.875Z,100546.31
2022-08-30T02:51:54.893Z,100552.69
2022-08-30T02:54:24.458Z,100551.45
2022-08-30T02:56:57.588Z,100556.03
2022-08-30T02:59:29.627Z,100554.39
2022-08-30T03:01:59.726Z,100560.86
2022-08-30T03:04:29.722Z,100564.05
2022-08-30T03:06:59.349Z,100567.52
2022-08-30T03:09:29.579Z,100571.76
2022-08-30T03:11:58.912Z,100578.89
2022-08-30T03:14:30.898Z,100580.80
2022-08-30T03:17:01.577Z,100586.06
2022-08-30T03:19:30.676Z,100585.27
2022-08-30T03:21:59.911Z,100589.83
2022-08-30T03:24:29.368Z,100592.44
2022-08-30T03:26:59.440Z,100594.36
2022-08-30T03:29:29.796Z,100593.91
2022-08-30T03:31:59.274Z,100594.47
2022-08-30T03:34:29.234Z,100596.55
2022-08-30T03:37:01.038Z,100599.38
2022-08-30T03:39:31.566Z,100601.57
2022-08-30T03:42:00.961Z,100606.34
2022-08-30T03:44:31.900Z,100606.23
2022-08-30T03:47:01.053Z,100606.39
2022-08-30T03:49:30.831Z,100607.30
2022-08-30T03:52:00.418Z,100612.59
2022-08-30T03:54:29.744Z,100608.48
2022-08-30T03:56:59.943Z,100609.83
2022-08-30T03:59:29.210Z,100611.31
2022-08-30T04:01:58.697Z,100615.61
2022-08-30T04:04:28.962Z,100620.38
2022-08-30T04:06:58.615Z,100625.49
2022-08-30T04:09:28.574Z,100629.41
2022-08-30T04:11:57.912Z,100631.08
2022-08-30T04:14:28.312Z,100631.92
2022-08-30T04:16:58.618Z,100629.95
2022-08-30T04:19:28.390Z,100635.48
2022-08-30T04:21:58.347Z,100637.01
2022-08-30T04:24:27.978Z,100639.55
2022-08-30T04:26:57.930Z,100643.02
2022-08-30T04:29:28.151Z,100649.38
2022-08-30T04:31:58.336Z,100650.04
2022-08-30T04:34:39.699Z,100654.70
2022-08-30T04:37:09.874Z,100652.46
2022-08-30T04:39:40.049Z,100656.98
2022-08-30T04:42:11.806Z,100658.85
2022-08-30T04:44:42.109Z,100660.36
2022-08-30T04:47:11.660Z,100664.39
2022-08-30T04:49:41.003Z,100667.29
2022-08-30T04:52:10.598Z,100668.16
2022-08-30T04:54:39.899Z,100668.30
2022-08-30T04:57:57.012Z,100668.30
2022-08-30T05:00:26.945Z,100666.34
2022-08-30T05:02:56.179Z,100667.02
2022-08-30T05:05:41.284Z,100674.21
2022-08-30T05:08:14.184Z,100671.94
2022-08-30T05:10:46.869Z,100677.69
2022-08-30T05:13:17.116Z,100676.16
2022-08-30T05:15:46.351Z,100679.14
2022-08-30T05:18:15.747Z,100684.40
2022-08-30T05:20:44.879Z,100684.75
2022-08-30T05:23:13.990Z,100686.33
2022-08-30T05:25:43.511Z,100688.28
2022-08-30T05:28:12.766Z,100687.30
2022-08-30T05:30:41.902Z,100686.43
2022-08-30T05:33:11.400Z,100686.10
2022-08-30T05:35:40.466Z,100684.87
2022-08-30T05:38:09.775Z,100689.15
2022-08-30T05:40:43.088Z,100690.14
2022-08-30T05:43:13.735Z,100692.27
2022-08-30T05:45:42.903Z,100694.04
2022-08-30T05:48:14.198Z,100696.64
2022-08-30T05:50:43.584Z,100696.09
2022-08-30T05:53:12.613Z,100698.95
2022-08-30T05:55:44.713Z,100698.58
2022-08-30T05:58:15.918Z,100698.39
2022-08-30T06:00:45.088Z,100696.67
2022-08-30T06:03:14.227Z,100694.36
2022-08-30T06:05:43.649Z,100700.52
2022-08-30T06:08:12.884Z,100701.26
2022-08-30T06:10:41.944Z,100701.52
2022-08-30T06:13:11.032Z,100702.00
2022-08-30T06:15:49.325Z,100702.73
2022-08-30T06:18:18.811Z,100702.65
2022-08-30T06:20:57.804Z,100707.39
2022-08-30T06:23:28.370Z,100705.38
2022-08-30T06:25:57.832Z,100710.76
2022-08-30T06:28:26.981Z,100707.66
2022-08-30T06:30:56.093Z,100710.61
2022-08-30T06:33:25.779Z,100713.13
2022-08-30T06:35:58.701Z,100710.94
2022-08-30T06:38:28.591Z,100713.39
2022-08-30T06:40:57.656Z,100707.01
2022-08-30T06:43:26.680Z,100712.61
2022-08-30T06:45:55.659Z,100713.55
2022-08-30T06:48:24.593Z,100717.02
2022-08-30T06:50:55.162Z,100718.38
2022-08-30T06:53:30.912Z,100720.33
2022-08-30T06:56:02.971Z,100719.90
2022-08-30T06:58:39.152Z,100719.16
2022-08-30T07:01:12.109Z,100720.96
2022-08-30T07:03:41.769Z,100719.54
2022-08-30T07:06:11.605Z,100721.77
2022-08-30T07:08:41.064Z,100721.77
2022-08-30T07:11:10.698Z,100721.27
2022-08-30T07:13:40.240Z,100721.32
2022-08-30T07:16:14.926Z,100720.30
2022-08-30T07:18:54.752Z,100718.73
2022-08-30T07:21:27.074Z,100717.66
2022-08-30T07:23:58.159Z,100718.64
2022-08-30T07:26:32.114Z,100716.88
2022-08-30T07:29:01.805Z,100714.60
2022-08-30T07:31:32.529Z,100715.16
2022-08-30T07:34:01.709Z,100709.52
2022-08-30T07:36:31.184Z,100707.45
2022-08-30T07:39:00.355Z,100713.52
2022-08-30T07:41:32.192Z,100715.53
2022-08-30T07:44:01.972Z,100719.60
2022-08-30T07:46:31.571Z,100712.42
2022-08-30T07:49:01.790Z,100718.27
2022-08-30T07:51:34.115Z,100715.80
2022-08-30T07:54:03.658Z,100717.26
2022-08-30T07:56:32.710Z,100716.48
2022-08-30T07:59:01.992Z,100716.59
2022-08-30T08:01:31.368Z,100715.70
2022-08-30T08:04:00.601Z,100715.84
2022-08-30T08:06:29.842Z,100716.63
2022-08-30T08:09:04.418Z,100717.64
2022-08-30T08:11:35.000Z,100718.56
2022-08-30T08:14:04.990Z,100716.42
2022-08-30T08:16:36.169Z,100718.93
2022-08-30T08:19:08.501Z,100718.52
2022-08-30T08:21:38.584Z,100718.62
2022-08-30T08:24:08.847Z,100719.55
2022-08-30T08:26:40.913Z,100719.77
2022-08-30T08:29:14.971Z,100716.71
2022-08-30T08:31:46.357Z,100715.91
2022-08-30T08:34:18.487Z,100719.63
2022-08-30T08:36:48.652Z,100714.29
2022-08-30T08:39:18.859Z,100713.23
2022-08-30T08:41:59.505Z,100711.70
2022-08-30T08:44:44.013Z,100710.47
2022-08-30T08:47:16.907Z,100708.77
2022-08-30T08:49:50.315Z,100708.27
2022-08-30T08:52:45.622Z,100708.20
2022-08-30T08:55:18.929Z,100708.05
2022-08-30T08:57:48.457Z,100709.54
2022-08-30T09:00:18.172Z,100710.27
2022-08-30T09:02:55.833Z,100708.13
2022-08-30T09:05:29.284Z,100705.02
2022-08-30T09:08:06.580Z,100707.45
2022-08-30T09:10:50.481Z,100707.71
2022-08-30T09:13:22.925Z,100707.69
2022-08-30T09:15:55.218Z,100702.10
2022-08-30T09:18:45.725Z,100701.73
2022-08-30T09:21:25.042Z,100698.77
2022-08-30T09:23:59.258Z,100697.94
2022-08-30T09:26:34.129Z,100697.13
2022-08-30T09:29:04.721Z,100697.63
2022-08-30T09:31:52.930Z,100692.89
2022-08-30T09:34:33.929Z,100692.43
2022-08-30T09:37:04.798Z,100690.13
2022-08-30T09:39:37.221Z,100686.23
2022-08-30T09:42:19.990Z,100684.48
2022-08-30T09:44:49.446Z,100682.57
2022-08-30T09:47:28.581Z,100685.14
2022-08-30T09:50:06.998Z,100684.85
2022-08-30T09:52:56.837Z,100681.92
2022-08-30T09:55:41.063Z,100679.40
2022-08-30T09:58:17.335Z,100675.33
2022-08-30T10:00:57.870Z,100676.54
2022-08-30T10:03:40.272Z,100676.52
2022-08-30T10:06:31.276Z,100677.79
2022-08-30T10:09:16.419Z,100676.00
2022-08-30T10:11:54.862Z,100670.70
2022-08-30T10:14:36.935Z,100670.38
2022-08-30T10:17:13.968Z,100669.44
2022-08-30T10:19:58.226Z,100666.78
2022-08-30T10:22:33.542Z,100665.02
2022-08-30T10:25:08.833Z,100663.03
2022-08-30T10:27:48.127Z,100657.79
2022-08-30T10:30:18.888Z,100655.62
2022-08-30T10:32:53.894Z,100649.73
2022-08-30T10:35:26.922Z,100643.63
2022-08-30T10:37:59.882Z,100640.55
2022-08-30T10:40:52.623Z,100638.15
2022-08-30T10:43:27.090Z,100634.20
2022-08-30T10:46:01.968Z,100630.01
2022-08-30T10:48:37.122Z,100629.08
2022-08-30T10:51:14.564Z,100627.59
2022-08-30T10:53:48.027Z,100626.42
2022-08-30T10:56:21.253Z,100626.17
2022-08-30T10:58:54.236Z,100623.93
2022-08-30T11:01:49.425Z,100625.23
2022-08-30T11:04:37.944Z,100621.71
2022-08-30T11:07:21.733Z,100620.84
2022-08-30T11:10:12.091Z,100617.61
2022-08-30T11:12:44.388Z,100614.16
2022-08-30T11:15:17.696Z,100605.79
2022-08-30T11:17:58.780Z,100603.30
2022-08-30T11:20:46.031Z,100600.97
2022-08-30T11:23:34.133Z,100595.74
2022-08-30T11:26:07.504Z,100590.61
2022-08-30T11:29:02.328Z,100586.96
2022-08-30T11:31:38.182Z,100583.41
2022-08-30T11:34:09.602Z,100583.52
2022-08-30T11:39:57.369Z,100568.94
2022-08-30T11:42:46.410Z,100565.80
2022-08-30T11:45:54.274Z,100562.64
2022-08-30T11:48:54.493Z,100562.39
2022-08-30T11:52:28.513Z,100555.44
2022-08-30T11:55:25.445Z,100554.98
2022-08-30T11:58:07.240Z,100554.02
2022-08-30T12:00:47.733Z,100553.42
2022-08-30T12:03:33.202Z,100548.20
2022-08-30T12:06:08.605Z,100547.01
2022-08-30T12:08:57.907Z,100542.52
2022-08-30T12:11:55.444Z,100541.71
2022-08-30T12:14:51.359Z,100535.88
2022-08-30T12:17:43.609Z,100536.85
2022-08-30T12:20:38.091Z,100537.85
2022-08-30T12:23:20.583Z,100529.98
2022-08-30T12:25:53.199Z,100518.75
2022-08-30T12:28:25.628Z,100515.83
2022-08-30T12:30:54.856Z,100516.96
2022-08-30T12:33:36.121Z,100513.30
2022-08-30T12:36:15.020Z,100506.77
2022-08-30T12:38:45.243Z,100497.40
2022-08-30T12:41:22.197Z,100495.80
2022-08-30T12:43:52.735Z,100499.17
2022-08-30T12:46:22.876Z,100494.77
2022-08-30T12:48:53.280Z,100490.05
2022-08-30T12:51:35.465Z,100491.82
2022-08-30T12:54:08.249Z,100489.89
2022-08-30T12:56:50.528Z,100485.56
2022-08-30T12:59:42.156Z,100481.23
2022-08-30T13:02:21.127Z,100482.92
2022-08-30T13:05:45.483Z,100481.84
2022-08-30T13:08:21.480Z,100477.08
2022-08-30T13:10:55.747Z,100469.61
2022-08-30T13:13:37.599Z,100463.34
2022-08-30T13:16:21.606Z,100462.16
2022-08-30T13:18:52.350Z,100453.86
2022-08-30T13:21:27.748Z,100450.58
2022-08-30T13:24:02.056Z,100450.96
2022-08-30T13:26:35.229Z,100451.30
2022-08-30T13:29:08.806Z,100449.48
2022-08-30T13:31:40.038Z,100445.08
2022-08-30T13:34:10.204Z,100443.99
2022-08-30T13:36:46.174Z,100438.55
2022-08-30T13:39:16.756Z,100436.69
2022-08-30T13:41:52.049Z,100433.32
2022-08-30T13:44:21.982Z,100431.58
2022-08-30T13:47:32.345Z,100436.88
2022-08-30T13:49:46.395Z,100440.55
2022-08-30T13:52:22.111Z,100441.39
2022-08-30T13:54:52.606Z,100436.80
2022-08-30T14:00:19.439Z,100428.76
2022-08-30T14:02:54.876Z,100429.22
2022-08-30T14:05:48.417Z,100428.67
2022-08-30T14:11:12.291Z,100422.18
2022-08-30T14:16:34.759Z,100421.68
2022-08-30T14:19:05.694Z,100422.05
2022-08-30T14:21:36.139Z,100423.04
2022-08-30T14:24:06.959Z,100424.80
2022-08-30T14:26:38.914Z,100424.29
2022-08-30T14:29:12.695Z,100428.38
2022-08-30T14:31:43.470Z,100429.59
2022-08-30T14:34:14.647Z,100429.71
2022-08-30T14:36:46.067Z,100429.12
2022-08-30T14:39:20.050Z,100434.15
2022-08-30T14:41:52.787Z,100435.16
2022-08-30T14:44:23.300Z,100431.56
2022-08-30T14:47:08.768Z,100433.89
2022-08-30T14:49:38.090Z,100434.52
2022-08-30T14:52:07.120Z,100432.65
2022-08-30T14:54:36.249Z,100429.80
2022-08-30T14:57:05.791Z,100427.65
2022-08-30T14:59:34.846Z,100424.33
2022-08-30T15:02:04.161Z,100423.86
2022-08-30T15:04:49.966Z,100425.27
2022-08-30T15:07:20.435Z,100420.55
2022-08-30T15:09:50.041Z,100414.70
2022-08-30T15:12:19.034Z,100416.53
2022-08-30T15:14:48.179Z,100413.56
2022-08-30T15:17:18.809Z,100413.29
2022-08-30T15:19:48.781Z,100411.37
2022-08-30T15:22:19.576Z,100402.58
2022-08-30T15:24:49.067Z,100400.73
2022-08-30T15:27:20.565Z,100399.98
2022-08-30T15:29:49.717Z,100399.11
2022-08-30T15:32:19.022Z,100398.98
2022-08-30T15:34:55.702Z,100396.16
2022-08-30T15:37:25.262Z,100396.89
2022-08-30T15:39:55.098Z,100398.80
2022-08-30T15:42:24.125Z,100400.70
2022-08-30T15:44:54.169Z,100398.70
2022-08-30T15:47:25.056Z,100397.42
2022-08-30T15:49:59.975Z,100390.85
2022-08-30T15:52:32.222Z,100386.39
2022-08-30T15:55:03.470Z,100382.23
2022-08-30T15:57:34.049Z,100383.15
2022-08-30T16:00:06.491Z,100380.50
2022-08-30T16:02:36.866Z,100379.88
2022-08-30T16:05:09.844Z,100377.27
2022-08-30T16:07:56.299Z,100377.52
2022-08-30T16:10:25.491Z,100373.80
2022-08-30T16:13:01.193Z,100372.58
2022-08-30T16:15:32.487Z,100378.84
2022-08-30T16:18:01.843Z,100380.77
2022-08-30T16:20:32.072Z,100383.70
2022-08-30T16:23:05.304Z,100392.89
2022-08-30T16:25:39.993Z,100400.18
2022-08-30T16:28:11.146Z,100409.19
2022-08-30T16:30:40.268Z,100417.36
2022-08-30T16:33:09.342Z,100414.84
2022-08-30T16:35:38.786Z,100414.33
2022-08-30T16:38:08.485Z,100410.33
2022-08-30T16:40:38.194Z,100418.77
2022-08-30T16:43:07.430Z,100421.17
2022-08-30T16:45:52.338Z,100428.08
2022-08-30T16:48:23.254Z,100435.73
2022-08-30T16:50:52.892Z,100446.33
2022-08-30T16:53:21.948Z,100440.20
2022-08-30T16:55:52.091Z,100441.32
2022-08-30T16:58:22.493Z,100452.10
2022-08-30T17:00:53.786Z,100461.95
2022-08-30T17:03:24.935Z,100461.58
2022-08-30T17:05:57.174Z,100462.46
2022-08-30T17:08:26.759Z,100466.16
2022-08-30T17:10:57.239Z,100473.42
2022-08-30T17:13:27.572Z,100473.33
2022-08-30T17:15:59.160Z,100482.35
2022-08-30T17:18:28.745Z,100484.92
2022-08-30T17:20:59.423Z,100485.94
2022-08-30T17:23:29.091Z,100493.29
2022-08-30T17:26:01.815Z,100493.83
2022-08-30T17:28:36.044Z,100504.52
2022-08-30T17:31:07.864Z,100510.89
2022-08-30T17:33:39.471Z,100516.53
2022-08-30T17:36:10.109Z,100525.50
2022-08-30T17:38:45.133Z,100532.33
2022-08-30T17:41:15.754Z,100535.66
2022-08-30T17:43:45.336Z,100539.13
2022-08-30T17:46:17.848Z,100543.02
2022-08-30T17:48:48.016Z,100545.25
2022-08-30T17:51:27.683Z,100542.82
2022-08-30T17:53:58.299Z,100543.21
2022-08-30T17:56:34.155Z,100539.81
2022-08-30T17:59:07.652Z,100538.70
2022-08-30T18:01:38.856Z,100538.01
2022-08-30T18:04:11.047Z,100539.35
2022-08-30T18:06:40.419Z,100543.58
2022-08-30T18:09:10.078Z,100547.69
2022-08-30T18:11:41.122Z,100556.88
2022-08-30T18:14:11.535Z,100560.20
2022-08-30T18:16:53.609Z,100555.95
2022-08-30T18:19:46.025Z,100555.99
2022-08-30T18:22:17.711Z,100547.87
2022-08-30T18:24:48.957Z,100547.79
2022-08-30T18:27:18.571Z,100546.57
2022-08-30T18:29:49.557Z,100551.51
2022-08-30T18:32:18.810Z,100556.32
2022-08-30T18:34:49.967Z,100565.91
2022-08-30T18:37:19.195Z,100560.80
2022-08-30T18:39:56.391Z,100560.07
2022-08-30T18:42:25.953Z,100566.44
2022-08-30T18:44:56.125Z,100568.70
2022-08-30T18:47:26.023Z,100573.64
2022-08-30T18:50:29.869Z,100575.26
2022-08-30T18:53:07.795Z,100576.92
2022-08-30T18:55:42.268Z,100577.41
2022-08-30T18:58:12.213Z,100577.30
2022-08-30T19:00:46.655Z,100579.68
2022-08-30T19:03:19.681Z,100586.01
2022-08-30T19:05:49.022Z,100585.36
2022-08-30T19:08:19.405Z,100589.42
2022-08-30T19:10:49.292Z,100589.00
2022-08-30T19:13:20.365Z,100599.84
2022-08-30T19:15:50.040Z,100600.28
2022-08-30T19:18:21.286Z,100603.10
2022-08-30T19:20:50.832Z,100604.14
2022-08-30T19:23:21.434Z,100606.83
2022-08-30T19:25:53.738Z,100603.95
2022-08-30T19:28:24.300Z,100609.56
2022-08-30T19:30:54.346Z,100610.95
2022-08-30T19:33:24.332Z,100605.27
2022-08-30T19:35:54.242Z,100601.59
2022-08-30T19:38:24.400Z,100602.17
2022-08-30T19:41:03.153Z,100599.98
2022-08-30T19:43:34.173Z,100590.41
2022-08-30T19:46:03.509Z,100587.78
2022-08-30T19:48:34.983Z,100587.88
2022-08-30T19:51:12.213Z,100591.08
2022-08-30T19:53:44.855Z,100589.06
2022-08-30T19:56:14.324Z,100588.29
2022-08-30T19:58:45.159Z,100585.52
2022-08-30T20:01:32.819Z,100583.91
2022-08-30T20:04:04.134Z,100586.48
2022-08-30T20:06:33.805Z,100586.88
2022-08-30T20:09:05.364Z,100589.86
2022-08-30T20:11:42.124Z,100591.54
2022-08-30T20:14:13.901Z,100588.85
2022-08-30T20:16:43.614Z,100593.02
2022-08-30T20:19:16.629Z,100591.13
2022-08-30T20:21:48.189Z,100592.52
2022-08-30T20:24:20.404Z,100592.27
2022-08-30T20:26:51.135Z,100590.35
2022-08-30T20:29:20.959Z,100593.56
2022-08-30T20:31:50.095Z,100592.43
2022-08-30T20:34:29.535Z,100592.63
2022-08-30T20:36:59.276Z,100599.27
2022-08-30T20:39:31.365Z,100601.45
2022-08-30T20:42:02.893Z,100608.20
2022-08-30T20:44:32.620Z,100613.92
2022-08-30T20:47:07.255Z,100621.48
2022-08-30T20:49:38.370Z,100626.82
2022-08-30T20:52:10.279Z,100635.56
2022-08-30T20:54:44.494Z,100641.88
2022-08-30T20:57:23.838Z,100648.47
2022-08-30T20:59:53.819Z,100655.27
2022-08-30T21:02:25.338Z,100662.62
2022-08-30T21:04:55.933Z,100666.53
2022-08-30T21:07:26.021Z,100667.61
2022-08-30T21:09:58.412Z,100671.72
2022-08-30T21:12:30.151Z,100674.32
2022-08-30T21:15:02.448Z,100671.96
2022-08-30T21:17:36.860Z,100683.83
2022-08-30T21:20:12.396Z,100685.39
2022-08-30T21:22:41.664Z,100682.17
2022-08-30T21:25:11.718Z,100678.62
2022-08-30T21:27:43.230Z,100679.98
2022-08-30T21:30:14.877Z,100674.73
2022-08-30T21:32:46.780Z,100671.56
2022-08-30T21:35:33.997Z,100665.31
2022-08-30T21:38:03.927Z,100660.92
2022-08-30T21:40:33.272Z,100659.59
2022-08-30T21:43:05.854Z,100650.09
2022-08-30T21:45:40.261Z,100653.17
2022-08-30T21:48:11.109Z,100633.73
2022-08-30T21:50:41.574Z,100639.17
2022-08-30T21:53:15.431Z,100632.95
2022-08-30T21:55:49.867Z,100632.13
2022-08-30T21:58:20.998Z,100632.15
2022-08-30T22:00:56.161Z,100627.11
2022-08-30T22:03:29.289Z,100626.30
2022-08-30T22:05:58.945Z,100620.65
2022-08-30T22:08:31.375Z,100620.30
2022-08-30T22:11:01.127Z,100622.17
2022-08-30T22:13:30.507Z,100618.52
2022-08-30T22:15:59.816Z,100613.04
2022-08-30T22:18:29.059Z,100612.39
2022-08-30T22:20:58.981Z,100603.77
2022-08-30T22:23:28.088Z,100596.46
2022-08-30T22:25:57.785Z,100585.38
2022-08-30T22:28:27.851Z,100583.22
2022-08-30T22:30:59.530Z,100582.70
2022-08-30T22:33:29.035Z,100581.55
2022-08-30T22:35:58.123Z,100578.73
2022-08-30T22:38:27.296Z,100578.60
2022-08-30T22:41:00.085Z,100569.77
2022-08-30T22:43:32.025Z,100571.21
2022-08-30T22:46:01.607Z,100571.27
2022-08-30T22:48:30.555Z,100572.03
2022-08-30T22:51:00.835Z,100572.08
2022-08-30T22:53:31.601Z,100568.39
2022-08-30T22:56:00.709Z,100567.69
2022-08-30T22:58:30.847Z,100567.60
2022-08-30T23:01:02.509Z,100562.27
2022-08-30T23:03:34.621Z,100558.27
2022-08-30T23:06:06.230Z,100552.34
2022-08-30T23:08:35.271Z,100549.73
2022-08-30T23:11:04.356Z,100549.67
2022-08-30T23:13:33.553Z,100549.27
2022-08-30T23:16:04.619Z,100545.60
2022-08-30T23:18:35.669Z,100542.67
2022-08-30T23:21:07.948Z,100537.92
2022-08-30T23:23:59.112Z,100536.22
2022-08-30T23:26:46.906Z,100536.44
2022-08-30T23:29:34.497Z,100538.96
2022-08-30T23:32:24.192Z,100538.88
2022-08-30T23:35:11.577Z,100538.43
2022-08-30T23:38:00.943Z,100535.34
2022-08-30T23:40:48.411Z,100533.88
2022-08-30T23:43:39.732Z,100530.08
2022-08-30T23:46:27.292Z,100525.94
2022-08-30T23:49:14.607Z,100522.22
2022-08-30T23:52:03.352Z,100517.95
2022-08-30T23:54:51.321Z,100515.35
2022-08-30T23:57:42.969Z,100510.58
